createdAt,value
2018-04-18T00:00:04.157Z,26.17
2018-04-18T00:02:32.704Z,25.77
2018-04-18T00:05:01.185Z,25.97
2018-04-18T00:07:29.692Z,26.27
2018-04-18T00:09:58.209Z,25.67
2018-04-18T00:12:26.741Z,25.37
2018-04-18T00:14:55.241Z,23.67
2018-04-18T00:17:23.709Z,21.67
2018-04-18T00:19:52.225Z,21.80
2018-04-18T00:24:58.874Z,17.53
2018-04-18T00:27:27.377Z,15.30
2018-04-18T00:29:55.896Z,14.47
2018-04-18T00:32:24.358Z,12.50
2018-04-18T00:34:52.896Z,11.53
2018-04-18T00:37:21.500Z,10.73
2018-04-18T00:39:49.984Z,11.17
2018-04-18T00:42:18.505Z,10.70
2018-04-18T00:44:47.029Z,10.47
2018-04-18T00:47:15.530Z,10.53
2018-04-18T00:49:43.997Z,10.50
2018-04-18T00:52:12.516Z,10.73
2018-04-18T00:54:40.996Z,11.70
2018-04-18T00:57:09.513Z,13.83
2018-04-18T00:59:38.049Z,14.03
2018-04-18T01:02:06.569Z,13.27
2018-04-18T01:04:35.105Z,13.93
2018-04-18T01:07:03.636Z,13.67
2018-04-18T01:09:32.164Z,12.50
2018-04-18T01:12:00.662Z,12.50
2018-04-18T01:14:29.234Z,14.07
2018-04-18T01:16:57.709Z,14.40
2018-04-18T01:19:26.245Z,14.03
2018-04-18T01:21:54.789Z,14.63
2018-04-18T01:24:23.300Z,14.47
2018-04-18T01:26:51.817Z,15.00
2018-04-18T01:29:20.334Z,13.87
2018-04-18T01:31:48.814Z,15.57
2018-04-18T01:34:17.301Z,13.53
2018-04-18T01:36:45.785Z,14.60
2018-04-18T01:39:14.308Z,14.30
2018-04-18T01:41:42.816Z,14.40
2018-04-18T01:44:11.330Z,14.00
2018-04-18T01:46:39.849Z,13.57
2018-04-18T01:49:20.137Z,14.60
2018-04-18T01:51:48.640Z,15.37
2018-04-18T01:54:17.186Z,14.40
2018-04-18T01:56:45.697Z,13.87
2018-04-18T01:59:14.209Z,14.37
2018-04-18T02:01:42.709Z,14.20
2018-04-18T02:04:11.221Z,14.70
2018-04-18T02:06:39.727Z,14.53
2018-04-18T02:09:08.257Z,13.90
2018-04-18T02:11:36.792Z,14.30
2018-04-18T02:14:05.342Z,15.07
2018-04-18T02:16:33.820Z,13.93
2018-04-18T02:19:02.336Z,14.10
2018-04-18T02:21:30.871Z,14.43
2018-04-18T02:23:59.332Z,15.03
2018-04-18T02:26:27.827Z,13.80
2018-04-18T02:28:56.369Z,14.40
2018-04-18T02:31:24.869Z,14.20
2018-04-18T02:33:53.389Z,14.53
2018-04-18T02:36:21.972Z,15.47
2018-04-18T02:38:50.476Z,14.83
2018-04-18T02:41:18.952Z,14.60
2018-04-18T02:43:47.473Z,14.57
2018-04-18T02:46:16.002Z,15.93
2018-04-18T02:48:44.497Z,14.47
2018-04-18T02:51:13.000Z,14.37
2018-04-18T02:53:41.481Z,14.63
2018-04-18T02:56:09.995Z,15.10
2018-04-18T02:58:38.477Z,15.27
2018-04-18T03:01:06.985Z,16.30
2018-04-18T03:03:35.485Z,16.97
2018-04-18T03:06:04.021Z,16.40
2018-04-18T03:08:32.917Z,17.10
2018-04-18T03:11:01.438Z,16.83
2018-04-18T03:13:29.949Z,18.27
2018-04-18T03:15:58.461Z,18.47
2018-04-18T03:18:26.937Z,17.47
2018-04-18T03:20:55.465Z,18.57
2018-04-18T03:23:23.950Z,18.43
2018-04-18T03:25:52.460Z,18.40
2018-04-18T03:28:20.928Z,18.30
2018-04-18T03:30:49.449Z,18.57
2018-04-18T03:33:17.928Z,18.43
2018-04-18T03:35:46.461Z,17.97
2018-04-18T03:38:14.945Z,18.07
2018-04-18T03:40:43.455Z,18.20
2018-04-18T03:43:11.983Z,17.40
2018-04-18T03:45:40.449Z,16.60
2018-04-18T03:48:08.957Z,16.47
2018-04-18T03:50:37.464Z,16.23
2018-04-18T03:53:05.979Z,17.90
2018-04-18T03:55:34.464Z,17.27
2018-04-18T03:58:02.986Z,17.13
2018-04-18T04:00:31.450Z,17.27
2018-04-18T04:02:59.974Z,15.33
2018-04-18T04:05:28.455Z,15.13
2018-04-18T04:07:56.927Z,15.60
2018-04-18T04:10:25.475Z,15.60
2018-04-18T04:12:54.005Z,15.90
2018-04-18T04:15:22.473Z,15.03
2018-04-18T04:18:02.682Z,15.47
2018-04-18T04:20:42.701Z,15.13
2018-04-18T04:23:22.749Z,15.43
2018-04-18T04:25:51.245Z,17.03
2018-04-18T04:28:19.735Z,18.47
2018-04-18T04:30:48.269Z,20.67
2018-04-18T04:33:16.751Z,20.23
2018-04-18T04:35:45.260Z,16.87
2018-04-18T04:38:13.736Z,21.13
2018-04-18T04:40:42.280Z,19.43
2018-04-18T04:43:10.757Z,17.03
2018-04-18T04:45:39.239Z,19.13
2018-04-18T04:48:07.760Z,18.63
2018-04-18T04:50:36.237Z,18.87
2018-04-18T04:53:04.749Z,16.53
2018-04-18T04:55:33.240Z,14.70
2018-04-18T04:58:01.814Z,18.83
2018-04-18T05:00:30.309Z,15.30
2018-04-18T05:02:58.840Z,14.13
2018-04-18T05:05:27.317Z,13.47
2018-04-18T05:07:55.832Z,15.33
2018-04-18T05:10:24.337Z,15.80
2018-04-18T05:12:52.835Z,15.07
2018-04-18T05:15:21.385Z,15.40
2018-04-18T05:17:49.877Z,15.33
2018-04-18T05:20:18.368Z,14.47
2018-04-18T05:22:46.841Z,14.97
2018-04-18T05:25:15.309Z,14.53
2018-04-18T05:27:43.824Z,13.87
2018-04-18T05:30:12.313Z,14.93
2018-04-18T05:32:40.825Z,14.27
2018-04-18T05:35:09.301Z,15.80
2018-04-18T05:37:37.813Z,14.60
2018-04-18T05:40:06.342Z,14.60
2018-04-18T05:42:34.861Z,15.03
2018-04-18T05:45:03.453Z,15.60
2018-04-18T05:47:31.903Z,15.67
2018-04-18T05:50:00.422Z,14.77
2018-04-18T05:52:28.954Z,14.47
2018-04-18T05:54:57.424Z,14.63
2018-04-18T05:57:25.932Z,15.03
2018-04-18T05:59:54.614Z,15.27
2018-04-18T06:02:23.149Z,14.73
2018-04-18T06:04:51.692Z,15.20
2018-04-18T06:07:20.181Z,15.13
2018-04-18T06:09:48.668Z,11.73
2018-04-18T06:12:17.208Z,11.03
2018-04-18T06:14:45.752Z,11.10
2018-04-18T06:17:14.247Z,11.17
2018-04-18T06:19:42.777Z,14.53
2018-04-18T06:22:11.277Z,11.63
2018-04-18T06:24:39.793Z,12.53
2018-04-18T06:27:08.314Z,12.93
2018-04-18T06:29:36.817Z,15.80
2018-04-18T06:32:05.328Z,15.53
2018-04-18T06:34:33.889Z,14.60
2018-04-18T06:37:02.411Z,14.67
2018-04-18T06:39:30.912Z,13.73
2018-04-18T06:41:59.390Z,16.37
2018-04-18T06:44:27.892Z,17.03
2018-04-18T06:46:56.361Z,15.83
2018-04-18T06:49:24.860Z,15.43
2018-04-18T06:51:53.323Z,15.67
2018-04-18T06:54:21.841Z,20.00
2018-04-18T06:56:50.325Z,14.57
2018-04-18T06:59:18.815Z,16.00
2018-04-18T07:01:47.333Z,15.30
2018-04-18T07:04:15.862Z,14.70
2018-04-18T07:06:44.332Z,14.60
2018-04-18T07:09:12.801Z,13.20
2018-04-18T07:11:41.316Z,12.70
2018-04-18T07:14:09.828Z,13.60
2018-04-18T07:16:38.348Z,13.70
2018-04-18T07:19:06.805Z,12.73
2018-04-18T07:21:35.317Z,9.87
2018-04-18T07:24:03.797Z,9.83
2018-04-18T07:26:32.352Z,10.10
2018-04-18T07:29:00.817Z,9.20
2018-04-18T07:31:29.284Z,10.73
2018-04-18T07:33:57.797Z,9.97
2018-04-18T07:36:26.261Z,9.30
2018-04-18T07:38:54.725Z,9.20
2018-04-18T07:41:23.250Z,8.60
2018-04-18T07:43:51.872Z,7.97
2018-04-18T07:46:20.351Z,8.07
2018-04-18T07:48:48.793Z,8.37
2018-04-18T07:51:17.336Z,7.77
2018-04-18T07:53:45.808Z,8.13
2018-04-18T07:56:14.313Z,8.47
2018-04-18T07:58:42.780Z,8.37
2018-04-18T08:01:11.291Z,8.30
2018-04-18T08:03:39.767Z,7.83
2018-04-18T08:06:08.274Z,8.27
2018-04-18T08:08:36.792Z,8.00
2018-04-18T08:11:05.321Z,7.33
2018-04-18T08:13:33.788Z,8.17
2018-04-18T08:16:02.300Z,8.30
2018-04-18T08:18:30.765Z,8.93
2018-04-18T08:20:59.332Z,8.20
2018-04-18T08:23:27.841Z,7.93
2018-04-18T08:25:56.316Z,7.83
2018-04-18T08:28:24.828Z,7.73
2018-04-18T08:30:53.333Z,7.40
2018-04-18T08:33:21.875Z,7.67
2018-04-18T08:35:50.377Z,7.67
2018-04-18T08:38:18.896Z,7.37
2018-04-18T08:40:47.407Z,8.00
2018-04-18T08:43:15.888Z,8.17
2018-04-18T08:45:44.344Z,7.63
2018-04-18T08:48:12.850Z,7.90
2018-04-18T08:50:41.361Z,7.33
2018-04-18T08:53:10.087Z,8.07
2018-04-18T08:55:38.635Z,7.00
2018-04-18T08:58:07.100Z,7.53
2018-04-18T09:00:35.592Z,8.63
2018-04-18T09:03:04.102Z,8.30
2018-04-18T09:05:32.595Z,7.77
2018-04-18T09:08:01.076Z,7.73
2018-04-18T09:10:29.612Z,7.33
2018-04-18T09:12:58.127Z,7.70
2018-04-18T09:15:26.583Z,7.97
2018-04-18T09:17:55.080Z,7.53
2018-04-18T09:20:23.558Z,7.10
2018-04-18T09:22:52.057Z,7.80
2018-04-18T09:25:20.524Z,6.63
2018-04-18T09:27:49.014Z,6.67
2018-04-18T09:30:17.512Z,6.30
2018-04-18T09:32:46.088Z,5.03
2018-04-18T09:35:14.548Z,5.37
2018-04-18T09:37:43.053Z,5.67
2018-04-18T09:40:11.579Z,6.10
2018-04-18T09:42:40.087Z,4.73
2018-04-18T09:45:08.594Z,3.90
2018-04-18T09:47:37.060Z,5.77
2018-04-18T09:50:05.610Z,6.43
2018-04-18T09:52:34.139Z,4.33
2018-04-18T09:55:02.665Z,4.27
2018-04-18T09:57:31.137Z,5.47
2018-04-18T09:59:59.659Z,5.53
2018-04-18T10:02:29.936Z,6.33
2018-04-18T10:05:03.803Z,5.27
2018-04-18T10:07:32.277Z,5.33
2018-04-18T10:10:01.397Z,5.20
2018-04-18T10:12:29.857Z,4.27
2018-04-18T10:14:58.356Z,5.47
2018-04-18T10:17:26.868Z,5.03
2018-04-18T10:19:55.421Z,5.43
2018-04-18T10:22:23.927Z,4.47
2018-04-18T10:24:52.414Z,4.77
2018-04-18T10:27:20.931Z,5.17
2018-04-18T10:29:49.443Z,4.27
2018-04-18T10:32:17.885Z,4.40
2018-04-18T10:34:46.351Z,3.90
2018-04-18T10:37:14.883Z,3.93
2018-04-18T10:39:43.403Z,4.90
2018-04-18T10:42:11.957Z,4.07
2018-04-18T10:44:40.476Z,4.33
2018-04-18T10:47:08.973Z,4.20
2018-04-18T10:49:37.494Z,4.20
2018-04-18T10:52:06.025Z,4.40
2018-04-18T10:54:34.610Z,4.80
2018-04-18T10:57:03.084Z,4.40
2018-04-18T10:59:31.605Z,4.40
2018-04-18T11:02:00.072Z,4.90
2018-04-18T11:04:28.550Z,5.00
2018-04-18T11:06:57.077Z,4.33
2018-04-18T11:09:25.645Z,4.27
2018-04-18T11:11:54.143Z,5.17
2018-04-18T11:14:22.653Z,4.60
2018-04-18T11:16:51.207Z,4.97
2018-04-18T11:19:19.665Z,4.40
2018-04-18T11:21:48.173Z,3.87
2018-04-18T11:24:16.647Z,4.17
2018-04-18T11:26:45.157Z,4.53
2018-04-18T11:29:13.659Z,5.00
2018-04-18T11:31:42.125Z,4.20
2018-04-18T11:34:10.622Z,4.13
2018-04-18T11:36:39.102Z,4.10
2018-04-18T11:39:07.637Z,4.40
2018-04-18T11:41:36.107Z,4.17
2018-04-18T11:44:04.673Z,4.23
2018-04-18T11:46:33.161Z,4.20
2018-04-18T11:49:01.659Z,5.17
2018-04-18T11:51:30.172Z,4.67
2018-04-18T11:53:58.741Z,3.97
2018-04-18T11:56:27.207Z,3.30
2018-04-18T11:58:55.721Z,4.03
2018-04-18T12:01:24.278Z,4.27
2018-04-18T12:03:52.788Z,3.43
2018-04-18T12:06:21.289Z,5.70
2018-04-18T12:08:49.781Z,3.40
2018-04-18T12:11:18.239Z,3.40
2018-04-18T12:13:46.761Z,4.20
2018-04-18T12:16:15.233Z,3.90
2018-04-18T12:18:44.057Z,3.57
2018-04-18T12:21:12.540Z,3.80
2018-04-18T12:23:41.006Z,3.77
2018-04-18T12:26:09.552Z,3.97
2018-04-18T12:28:38.008Z,3.93
2018-04-18T12:31:06.492Z,4.33
2018-04-18T12:33:35.010Z,4.00
2018-04-18T12:36:03.664Z,3.80
2018-04-18T12:38:32.198Z,4.30
2018-04-18T12:41:00.710Z,3.77
2018-04-18T12:43:29.237Z,3.93
2018-04-18T12:45:57.701Z,3.90
2018-04-18T12:48:26.215Z,4.53
2018-04-18T12:50:54.676Z,3.80
2018-04-18T12:53:23.141Z,4.40
2018-04-18T12:55:51.644Z,3.93
2018-04-18T12:58:20.152Z,4.70
2018-04-18T13:00:48.658Z,4.17
2018-04-18T13:03:17.116Z,3.93
2018-04-18T13:05:45.608Z,3.67
2018-04-18T13:08:14.096Z,3.87
2018-04-18T13:10:42.662Z,3.67
2018-04-18T13:13:11.277Z,3.93
2018-04-18T13:15:39.814Z,3.47
2018-04-18T13:18:08.318Z,3.90
2018-04-18T13:20:36.816Z,3.93
2018-04-18T13:23:05.303Z,3.10
2018-04-18T13:25:33.805Z,3.63
2018-04-18T13:28:02.308Z,3.93
2018-04-18T13:30:30.845Z,4.10
2018-04-18T13:32:59.326Z,3.37
2018-04-18T13:35:27.832Z,3.90
2018-04-18T13:37:56.300Z,3.53
2018-04-18T13:40:24.850Z,4.00
2018-04-18T13:42:53.374Z,3.80
2018-04-18T13:45:21.936Z,7.33
2018-04-18T13:47:50.416Z,8.43
2018-04-18T13:50:18.911Z,4.40
2018-04-18T13:52:47.408Z,4.20
2018-04-18T13:55:15.882Z,6.07
2018-04-18T13:57:44.397Z,4.30
2018-04-18T14:00:12.894Z,3.90
2018-04-18T14:02:41.516Z,4.10
2018-04-18T14:05:09.997Z,4.33
2018-04-18T14:07:38.502Z,4.20
2018-04-18T14:10:06.999Z,4.17
2018-04-18T14:12:35.468Z,4.13
2018-04-18T14:15:03.992Z,3.70
2018-04-18T14:17:32.507Z,3.73
2018-04-18T14:20:01.032Z,4.20
2018-04-18T14:22:29.508Z,4.07
2018-04-18T14:24:58.005Z,3.70
2018-04-18T14:27:26.556Z,3.90
2018-04-18T14:29:55.081Z,7.63
2018-04-18T14:32:23.620Z,3.97
2018-04-18T14:34:52.103Z,3.70
2018-04-18T14:37:20.594Z,3.63
2018-04-18T14:39:49.059Z,4.30
2018-04-18T14:42:17.519Z,3.93
2018-04-18T14:44:46.040Z,3.93
2018-04-18T14:47:14.526Z,3.50
2018-04-18T14:49:42.986Z,3.93
2018-04-18T14:52:11.523Z,4.00
2018-04-18T14:54:39.985Z,4.03
2018-04-18T14:57:08.485Z,4.03
2018-04-18T14:59:36.948Z,3.50
2018-04-18T15:02:05.452Z,4.07
2018-04-18T15:04:33.928Z,4.20
2018-04-18T15:07:02.418Z,4.67
2018-04-18T15:09:30.913Z,4.17
2018-04-18T15:11:59.420Z,4.30
2018-04-18T15:14:27.920Z,4.73
2018-04-18T15:16:56.420Z,3.80
2018-04-18T15:19:24.873Z,3.90
2018-04-18T15:21:53.369Z,4.27
2018-04-18T15:24:21.807Z,4.50
2018-04-18T15:26:50.308Z,4.17
2018-04-18T15:29:18.770Z,4.27
2018-04-18T15:31:47.321Z,4.70
2018-04-18T15:34:15.791Z,4.40
2018-04-18T15:36:44.289Z,4.43
2018-04-18T15:39:12.745Z,4.83
2018-04-18T15:41:41.258Z,4.83
2018-04-18T15:44:09.697Z,4.80
2018-04-18T15:46:38.194Z,4.40
2018-04-18T15:49:06.693Z,4.83
2018-04-18T15:51:35.199Z,4.33
2018-04-18T15:54:03.661Z,4.57
2018-04-18T15:56:32.189Z,4.30
2018-04-18T15:59:00.657Z,4.70
2018-04-18T16:01:29.156Z,4.63
2018-04-18T16:03:57.656Z,4.57
2018-04-18T16:06:26.152Z,4.50
2018-04-18T16:08:54.749Z,4.67
2018-04-18T16:11:23.208Z,4.50
2018-04-18T16:13:51.673Z,4.60
2018-04-18T16:16:20.195Z,4.73
2018-04-18T16:18:48.649Z,4.33
2018-04-18T16:21:17.117Z,4.90
2018-04-18T16:23:45.610Z,4.40
2018-04-18T16:26:14.082Z,4.10
2018-04-18T16:28:42.599Z,4.80
2018-04-18T16:31:11.060Z,4.57
2018-04-18T16:33:39.574Z,4.83
2018-04-18T16:36:08.029Z,4.80
2018-04-18T16:38:36.533Z,4.97
2018-04-18T16:41:05.031Z,4.73
2018-04-18T16:43:33.528Z,4.77
2018-04-18T16:46:02.093Z,4.37
2018-04-18T16:48:30.584Z,4.53
2018-04-18T16:50:59.904Z,4.50
2018-04-18T16:53:28.357Z,5.20
2018-04-18T16:55:56.874Z,4.70
2018-04-18T16:58:25.342Z,4.97
2018-04-18T17:00:53.809Z,4.70
2018-04-18T17:03:22.309Z,6.00
2018-04-18T17:05:50.772Z,5.87
2018-04-18T17:08:19.264Z,6.23
2018-04-18T17:10:47.738Z,6.23
2018-04-18T17:13:16.228Z,5.97
2018-04-18T17:15:44.725Z,5.67
2018-04-18T17:18:13.229Z,5.90
2018-04-18T17:20:41.709Z,6.33
2018-04-18T17:23:10.305Z,6.53
2018-04-18T17:25:38.811Z,5.83
2018-04-18T17:28:07.268Z,6.90
2018-04-18T17:30:35.785Z,5.87
2018-04-18T17:33:04.264Z,5.97
2018-04-18T17:35:32.735Z,6.33
2018-04-18T17:38:01.253Z,6.37
2018-04-18T17:40:29.724Z,5.80
2018-04-18T17:42:58.225Z,6.43
2018-04-18T17:45:26.688Z,7.07
2018-04-18T17:47:55.187Z,6.17
2018-04-18T17:50:23.654Z,5.90
2018-04-18T17:52:52.156Z,6.43
2018-04-18T17:55:20.669Z,6.07
2018-04-18T17:57:49.187Z,6.27
2018-04-18T18:00:17.720Z,6.00
2018-04-18T18:02:46.205Z,6.40
2018-04-18T18:05:14.695Z,5.97
2018-04-18T18:07:43.189Z,6.73
2018-04-18T18:10:11.685Z,6.00
2018-04-18T18:12:40.148Z,5.97
2018-04-18T18:15:08.624Z,6.40
2018-04-18T18:17:37.132Z,5.80
2018-04-18T18:20:05.667Z,6.50
2018-04-18T18:22:34.177Z,6.53
2018-04-18T18:25:02.727Z,6.60
2018-04-18T18:27:31.214Z,6.37
2018-04-18T18:29:59.685Z,6.53
2018-04-18T18:32:28.197Z,6.23
2018-04-18T18:34:56.701Z,5.80
2018-04-18T18:37:25.168Z,5.70
2018-04-18T18:39:53.677Z,5.70
2018-04-18T18:42:22.162Z,5.43
2018-04-18T18:44:50.645Z,5.37
2018-04-18T18:47:19.215Z,6.43
2018-04-18T18:49:47.759Z,5.40
2018-04-18T18:52:16.245Z,4.90
2018-04-18T18:54:44.708Z,5.50
2018-04-18T18:57:13.214Z,5.63
2018-04-18T18:59:41.684Z,5.60
2018-04-18T19:02:10.164Z,5.50
2018-04-18T19:04:38.664Z,5.97
2018-04-18T19:07:07.108Z,5.90
2018-04-18T19:09:35.617Z,5.97
2018-04-18T19:12:04.094Z,6.33
2018-04-18T19:14:32.590Z,6.23
2018-04-18T19:17:01.106Z,6.20
2018-04-18T19:19:29.632Z,5.87
2018-04-18T19:21:58.134Z,6.20
2018-04-18T19:24:26.611Z,6.10
2018-04-18T19:26:55.085Z,5.83
2018-04-18T19:29:23.595Z,5.40
2018-04-18T19:31:52.069Z,5.50
2018-04-18T19:34:20.543Z,5.30
2018-04-18T19:36:49.071Z,5.10
2018-04-18T19:39:17.552Z,4.97
2018-04-18T19:41:46.081Z,4.80
2018-04-18T19:44:14.540Z,5.40
2018-04-18T19:46:43.064Z,5.03
2018-04-18T19:49:11.525Z,5.27
2018-04-18T19:51:40.023Z,5.63
2018-04-18T19:54:08.476Z,4.63
2018-04-18T19:56:36.958Z,5.50
2018-04-18T19:59:05.428Z,5.13
2018-04-18T20:01:33.917Z,5.30
2018-04-18T20:04:02.380Z,5.57
2018-04-18T20:06:30.888Z,5.03
2018-04-18T20:08:59.332Z,5.13
2018-04-18T20:11:27.829Z,5.03
2018-04-18T20:13:56.296Z,5.63
2018-04-18T20:16:24.787Z,5.00
2018-04-18T20:18:53.286Z,5.00
2018-04-18T20:21:21.744Z,4.67
2018-04-18T20:23:50.245Z,5.13
2018-04-18T20:26:18.748Z,5.57
2018-04-18T20:28:47.218Z,5.60
2018-04-18T20:31:15.677Z,5.10
2018-04-18T20:33:44.184Z,4.93
2018-04-18T20:36:12.680Z,5.53
2018-04-18T20:38:41.133Z,5.37
2018-04-18T20:41:09.641Z,5.17
2018-04-18T20:43:38.191Z,5.37
2018-04-18T20:46:06.622Z,5.17
2018-04-18T20:48:35.139Z,5.33
2018-04-18T20:51:03.617Z,5.80
2018-04-18T20:53:32.134Z,6.10
2018-04-18T20:56:00.632Z,5.97
2018-04-18T20:58:29.093Z,6.00
2018-04-18T21:00:57.601Z,6.10
2018-04-18T21:03:26.047Z,6.53
2018-04-18T21:05:54.535Z,6.10
2018-04-18T21:08:23.048Z,6.47
2018-04-18T21:10:51.505Z,5.90
2018-04-18T21:13:20.024Z,6.20
2018-04-18T21:15:48.491Z,6.20
2018-04-18T21:18:16.965Z,6.70
2018-04-18T21:20:45.537Z,6.60
2018-04-18T21:23:14.053Z,6.87
2018-04-18T21:25:42.521Z,6.07
2018-04-18T21:28:10.986Z,6.93
2018-04-18T21:30:39.485Z,6.40
2018-04-18T21:33:07.954Z,6.30
2018-04-18T21:35:36.465Z,7.43
2018-04-18T21:38:04.928Z,6.43
2018-04-18T21:40:33.414Z,7.07
2018-04-18T21:43:01.953Z,6.87
2018-04-18T21:45:30.430Z,6.93
2018-04-18T21:47:58.918Z,7.17
2018-04-18T21:50:27.421Z,6.70
2018-04-18T21:52:55.882Z,7.50
2018-04-18T21:55:24.388Z,7.87
2018-04-18T21:57:52.845Z,7.30
2018-04-18T22:00:21.408Z,7.63
2018-04-18T22:02:49.881Z,7.10
2018-04-18T22:05:18.408Z,6.97
2018-04-18T22:07:46.900Z,7.07
2018-04-18T22:10:15.436Z,6.93
2018-04-18T22:12:43.916Z,7.40
2018-04-18T22:15:12.425Z,6.67
2018-04-18T22:17:40.921Z,6.83
2018-04-18T22:20:09.385Z,6.60
2018-04-18T22:22:37.892Z,6.87
2018-04-18T22:25:06.355Z,7.13
2018-04-18T22:27:34.848Z,6.70
2018-04-18T22:30:03.370Z,6.90
2018-04-18T22:32:31.835Z,7.50
2018-04-18T22:35:00.321Z,6.80
2018-04-18T22:37:28.832Z,7.40
2018-04-18T22:39:57.317Z,7.40
2018-04-18T22:42:25.766Z,7.07
2018-04-18T22:44:54.272Z,7.23
2018-04-18T22:47:22.751Z,7.27
2018-04-18T22:49:51.253Z,7.13
2018-04-18T22:52:19.762Z,7.33
2018-04-18T22:54:48.245Z,7.53
2018-04-18T22:57:16.780Z,6.97
2018-04-18T22:59:45.239Z,6.77
2018-04-18T23:02:13.771Z,6.53
2018-04-18T23:04:42.244Z,6.50
2018-04-18T23:07:10.744Z,6.60
2018-04-18T23:09:39.252Z,6.33
2018-04-18T23:12:07.705Z,6.40
2018-04-18T23:14:36.216Z,6.13
2018-04-18T23:17:04.694Z,6.93
2018-04-18T23:19:33.185Z,6.33
2018-04-18T23:22:01.677Z,6.50
2018-04-18T23:24:30.236Z,6.47
2018-04-18T23:26:58.688Z,5.77
2018-04-18T23:29:27.153Z,6.23
2018-04-18T23:31:55.649Z,7.13
2018-04-18T23:34:24.154Z,7.10
2018-04-18T23:36:52.661Z,7.13
2018-04-18T23:39:21.222Z,6.77
2018-04-18T23:41:49.688Z,6.17
2018-04-18T23:44:18.189Z,7.03
2018-04-18T23:46:46.640Z,6.40
2018-04-18T23:49:15.154Z,6.47
2018-04-18T23:51:43.634Z,6.97
2018-04-18T23:54:12.137Z,6.67
2018-04-18T23:56:40.605Z,6.77
2018-04-18T23:59:09.100Z,7.50
